sensor_id;sensor_type;location;lat;lon;timestamp;pressure;altitude;pressure_sealevel;temperature;humidity
34065;BME280;20339;49.754;20.158;2023-12-22T00:00:58;93628.25;;;3.78;100.00
34065;BME280;20339;49.754;20.158;2023-12-22T00:03:41;93679.08;;;3.77;100.00
34065;BME280;20339;49.754;20.158;2023-12-22T00:06:09;93688.73;;;3.74;100.00
34065;BME280;20339;49.754;20.158;2023-12-22T00:08:39;93688.20;;;3.67;100.00
34065;BME280;20339;49.754;20.158;2023-12-22T00:11:07;93684.33;;;3.61;100.00
34065;BME280;20339;49.754;20.158;2023-12-22T00:13:35;93678.46;;;3.53;100.00
34065;BME280;20339;49.754;20.158;2023-12-22T00:16:05;93670.52;;;3.49;100.00
34065;BME280;20339;49.754;20.158;2023-12-22T00:18:32;93671.02;;;3.50;100.00
34065;BME280;20339;49.754;20.158;2023-12-22T00:21:00;93668.96;;;3.50;100.00
34065;BME280;20339;49.754;20.158;2023-12-22T00:23:29;93681.13;;;3.51;100.00
34065;BME280;20339;49.754;20.158;2023-12-22T00:25:57;93698.04;;;3.54;100.00
34065;BME280;20339;49.754;20.158;2023-12-22T00:28:25;93712.75;;;3.52;100.00
34065;BME280;20339;49.754;20.158;2023-12-22T00:30:55;93727.64;;;3.19;99.77
34065;BME280;20339;49.754;20.158;2023-12-22T00:33:24;93726.26;;;2.76;97.93
34065;BME280;20339;49.754;20.158;2023-12-22T00:35:55;93753.42;;;2.47;97.68
34065;BME280;20339;49.754;20.158;2023-12-22T00:38:23;93756.45;;;2.22;97.83
34065;BME280;20339;49.754;20.158;2023-12-22T00:40:52;93747.63;;;2.05;98.18
34065;BME280;20339;49.754;20.158;2023-12-22T00:43:23;93745.86;;;1.99;98.71
34065;BME280;20339;49.754;20.158;2023-12-22T00:45:51;93745.55;;;2.04;98.75
34065;BME280;20339;49.754;20.158;2023-12-22T00:48:20;93750.14;;;2.04;98.55
34065;BME280;20339;49.754;20.158;2023-12-22T00:50:48;93729.68;;;2.03;98.77
34065;BME280;20339;49.754;20.158;2023-12-22T00:53:17;93760.08;;;2.02;98.65
34065;BME280;20339;49.754;20.158;2023-12-22T00:55:45;93763.94;;;1.97;98.39
34065;BME280;20339;49.754;20.158;2023-12-22T00:58:13;93765.78;;;1.91;98.28
34065;BME280;20339;49.754;20.158;2023-12-22T01:00:41;93769.84;;;1.87;98.41
34065;BME280;20339;49.754;20.158;2023-12-22T01:03:10;93746.17;;;1.87;98.52
34065;BME280;20339;49.754;20.158;2023-12-22T01:05:39;93736.36;;;1.85;98.57
34065;BME280;20339;49.754;20.158;2023-12-22T01:08:08;93731.25;;;1.84;98.74
34065;BME280;20339;49.754;20.158;2023-12-22T01:10:36;93725.33;;;1.89;99.14
34065;BME280;20339;49.754;20.158;2023-12-22T01:13:04;93713.50;;;1.97;99.53
34065;BME280;20339;49.754;20.158;2023-12-22T01:15:33;93712.23;;;2.09;99.70
34065;BME280;20339;49.754;20.158;2023-12-22T01:18:01;93711.14;;;2.17;99.75
34065;BME280;20339;49.754;20.158;2023-12-22T01:20:30;93712.66;;;2.21;99.97
34065;BME280;20339;49.754;20.158;2023-12-22T01:22:58;93724.31;;;2.26;100.00
34065;BME280;20339;49.754;20.158;2023-12-22T01:25:26;93732.92;;;2.29;100.00
34065;BME280;20339;49.754;20.158;2023-12-22T01:27:55;93748.95;;;2.32;100.00
34065;BME280;20339;49.754;20.158;2023-12-22T01:30:24;93741.33;;;2.29;100.00
34065;BME280;20339;49.754;20.158;2023-12-22T01:32:52;93733.13;;;2.22;100.00
34065;BME280;20339;49.754;20.158;2023-12-22T01:35:21;93725.95;;;2.16;99.97
34065;BME280;20339;49.754;20.158;2023-12-22T01:37:49;93730.08;;;2.11;99.85
34065;BME280;20339;49.754;20.158;2023-12-22T01:40:17;93762.67;;;2.09;99.75
34065;BME280;20339;49.754;20.158;2023-12-22T01:42:46;93781.90;;;2.15;99.99
34065;BME280;20339;49.754;20.158;2023-12-22T01:45:15;93780.54;;;2.18;100.00
34065;BME280;20339;49.754;20.158;2023-12-22T01:47:43;93792.67;;;2.04;99.86
34065;BME280;20339;49.754;20.158;2023-12-22T01:50:12;93789.36;;;1.82;99.63
34065;BME280;20339;49.754;20.158;2023-12-22T01:52:42;93781.25;;;1.67;99.87
34065;BME280;20339;49.754;20.158;2023-12-22T01:55:10;93778.95;;;1.60;99.93
34065;BME280;20339;49.754;20.158;2023-12-22T01:57:42;93780.75;;;1.61;100.00
34065;BME280;20339;49.754;20.158;2023-12-22T02:00:15;93765.14;;;1.69;100.00
34065;BME280;20339;49.754;20.158;2023-12-22T02:02:44;93772.69;;;1.86;100.00
34065;BME280;20339;49.754;20.158;2023-12-22T02:05:13;93766.84;;;1.96;100.00
34065;BME280;20339;49.754;20.158;2023-12-22T02:07:42;93766.39;;;2.04;100.00
34065;BME280;20339;49.754;20.158;2023-12-22T02:10:11;93777.92;;;2.09;99.97
34065;BME280;20339;49.754;20.158;2023-12-22T02:12:39;93773.30;;;2.12;99.87
34065;BME280;20339;49.754;20.158;2023-12-22T02:15:09;93769.15;;;2.13;99.69
34065;BME280;20339;49.754;20.158;2023-12-22T02:17:45;93771.54;;;2.15;99.63
34065;BME280;20339;49.754;20.158;2023-12-22T02:20:17;93781.84;;;2.15;99.41
34065;BME280;20339;49.754;20.158;2023-12-22T02:22:46;93784.84;;;2.21;99.42
34065;BME280;20339;49.754;20.158;2023-12-22T02:25:19;93783.52;;;2.27;99.12
34065;BME280;20339;49.754;20.158;2023-12-22T02:27:49;93782.59;;;2.31;98.48
34065;BME280;20339;49.754;20.158;2023-12-22T02:30:23;93783.80;;;2.34;98.08
34065;BME280;20339;49.754;20.158;2023-12-22T02:32:56;93781.39;;;2.35;97.67
34065;BME280;20339;49.754;20.158;2023-12-22T02:35:28;93770.42;;;2.26;97.29
34065;BME280;20339;49.754;20.158;2023-12-22T02:37:58;93763.80;;;2.16;97.17
34065;BME280;20339;49.754;20.158;2023-12-22T02:40:28;93767.27;;;2.09;97.13
34065;BME280;20339;49.754;20.158;2023-12-22T02:42:59;93758.05;;;2.06;97.17
34065;BME280;20339;49.754;20.158;2023-12-22T02:45:28;93756.44;;;2.08;97.04
34065;BME280;20339;49.754;20.158;2023-12-22T02:47:58;93757.59;;;2.07;96.99
34065;BME280;20339;49.754;20.158;2023-12-22T02:50:28;93762.55;;;2.10;96.77
34065;BME280;20339;49.754;20.158;2023-12-22T02:52:57;93752.73;;;2.13;96.59
34065;BME280;20339;49.754;20.158;2023-12-22T02:55:25;93751.05;;;2.13;96.56
34065;BME280;20339;49.754;20.158;2023-12-22T02:57:56;93769.69;;;2.12;96.45
34065;BME280;20339;49.754;20.158;2023-12-22T03:00:24;93765.71;;;2.11;96.40
34065;BME280;20339;49.754;20.158;2023-12-22T03:02:53;93761.03;;;2.16;96.43
34065;BME280;20339;49.754;20.158;2023-12-22T03:05:22;93762.80;;;2.23;96.29
34065;BME280;20339;49.754;20.158;2023-12-22T03:07:50;93766.67;;;2.25;96.02
34065;BME280;20339;49.754;20.158;2023-12-22T03:10:18;93756.12;;;2.22;95.68
34065;BME280;20339;49.754;20.158;2023-12-22T03:12:47;93754.56;;;2.24;95.35
34065;BME280;20339;49.754;20.158;2023-12-22T03:15:16;93760.50;;;2.25;94.53
34065;BME280;20339;49.754;20.158;2023-12-22T03:17:44;93767.25;;;2.25;94.08
34065;BME280;20339;49.754;20.158;2023-12-22T03:20:13;93769.08;;;2.20;93.77
34065;BME280;20339;49.754;20.158;2023-12-22T03:22:42;93773.91;;;2.16;93.73
34065;BME280;20339;49.754;20.158;2023-12-22T03:25:10;93779.62;;;2.11;93.42
34065;BME280;20339;49.754;20.158;2023-12-22T03:27:38;93781.61;;;2.08;93.24
34065;BME280;20339;49.754;20.158;2023-12-22T03:30:11;93776.95;;;2.06;93.39
34065;BME280;20339;49.754;20.158;2023-12-22T03:32:39;93766.33;;;2.07;93.23
34065;BME280;20339;49.754;20.158;2023-12-22T03:35:08;93761.82;;;2.10;93.01
34065;BME280;20339;49.754;20.158;2023-12-22T03:37:36;93748.13;;;2.10;92.44
34065;BME280;20339;49.754;20.158;2023-12-22T03:40:07;93759.49;;;2.21;91.04
34065;BME280;20339;49.754;20.158;2023-12-22T03:42:37;93768.02;;;2.28;89.75
34065;BME280;20339;49.754;20.158;2023-12-22T03:45:08;93763.59;;;2.30;89.53
34065;BME280;20339;49.754;20.158;2023-12-22T03:47:36;93756.16;;;2.28;88.97
34065;BME280;20339;49.754;20.158;2023-12-22T03:50:07;93745.08;;;2.28;87.98
34065;BME280;20339;49.754;20.158;2023-12-22T03:52:36;93743.81;;;2.31;86.62
34065;BME280;20339;49.754;20.158;2023-12-22T03:55:06;93736.98;;;2.30;86.02
34065;BME280;20339;49.754;20.158;2023-12-22T03:57:34;93741.13;;;2.29;85.78
34065;BME280;20339;49.754;20.158;2023-12-22T04:00:03;93739.35;;;2.27;85.06
34065;BME280;20339;49.754;20.158;2023-12-22T04:02:33;93732.36;;;2.28;83.93
34065;BME280;20339;49.754;20.158;2023-12-22T04:05:01;93726.54;;;2.27;82.70
34065;BME280;20339;49.754;20.158;2023-12-22T04:07:30;93745.52;;;2.29;81.38
34065;BME280;20339;49.754;20.158;2023-12-22T04:09:59;93735.33;;;2.31;81.10
34065;BME280;20339;49.754;20.158;2023-12-22T04:12:28;93753.50;;;2.30;80.59
34065;BME280;20339;49.754;20.158;2023-12-22T04:14:56;93764.63;;;2.32;79.06
34065;BME280;20339;49.754;20.158;2023-12-22T04:17:27;93767.20;;;2.34;76.06
34065;BME280;20339;49.754;20.158;2023-12-22T04:19:55;93768.94;;;2.31;75.18
34065;BME280;20339;49.754;20.158;2023-12-22T04:22:27;93772.89;;;2.34;74.25
34065;BME280;20339;49.754;20.158;2023-12-22T04:24:58;93779.80;;;2.34;74.54
34065;BME280;20339;49.754;20.158;2023-12-22T04:27:29;93786.68;;;2.32;74.74
34065;BME280;20339;49.754;20.158;2023-12-22T04:29:57;93773.20;;;2.26;75.82
34065;BME280;20339;49.754;20.158;2023-12-22T04:32:27;93785.67;;;2.17;76.26
34065;BME280;20339;49.754;20.158;2023-12-22T04:34:55;93772.27;;;2.18;75.49
34065;BME280;20339;49.754;20.158;2023-12-22T04:37:26;93781.53;;;2.19;75.84
34065;BME280;20339;49.754;20.158;2023-12-22T04:39:57;93786.14;;;2.19;76.15
34065;BME280;20339;49.754;20.158;2023-12-22T04:42:25;93780.65;;;2.17;76.12
34065;BME280;20339;49.754;20.158;2023-12-22T04:44:54;93779.23;;;2.14;75.77
34065;BME280;20339;49.754;20.158;2023-12-22T04:47:22;93772.44;;;2.13;75.73
34065;BME280;20339;49.754;20.158;2023-12-22T04:49:51;93766.59;;;2.15;74.77
34065;BME280;20339;49.754;20.158;2023-12-22T04:52:20;93757.99;;;2.16;74.13
34065;BME280;20339;49.754;20.158;2023-12-22T04:54:49;93747.13;;;2.15;73.94
34065;BME280;20339;49.754;20.158;2023-12-22T04:57:17;93752.44;;;2.14;73.98
34065;BME280;20339;49.754;20.158;2023-12-22T04:59:45;93753.78;;;2.13;73.92
34065;BME280;20339;49.754;20.158;2023-12-22T05:02:14;93755.38;;;2.08;74.22
34065;BME280;20339;49.754;20.158;2023-12-22T05:04:42;93762.59;;;2.04;74.73
34065;BME280;20339;49.754;20.158;2023-12-22T05:07:10;93762.88;;;1.98;75.05
34065;BME280;20339;49.754;20.158;2023-12-22T05:09:39;93757.93;;;1.96;75.13
34065;BME280;20339;49.754;20.158;2023-12-22T05:12:09;93766.27;;;1.93;75.65
34065;BME280;20339;49.754;20.158;2023-12-22T05:14:37;93771.64;;;1.86;76.30
34065;BME280;20339;49.754;20.158;2023-12-22T05:17:05;93765.25;;;1.78;76.91
34065;BME280;20339;49.754;20.158;2023-12-22T05:19:36;93758.55;;;1.69;77.57
34065;BME280;20339;49.754;20.158;2023-12-22T05:22:07;93761.45;;;1.64;78.24
34065;BME280;20339;49.754;20.158;2023-12-22T05:24:40;93758.01;;;1.60;78.72
34065;BME280;20339;49.754;20.158;2023-12-22T05:27:08;93755.41;;;1.57;79.30
34065;BME280;20339;49.754;20.158;2023-12-22T05:29:40;93751.55;;;1.59;79.72
34065;BME280;20339;49.754;20.158;2023-12-22T05:32:08;93741.73;;;1.57;79.95
34065;BME280;20339;49.754;20.158;2023-12-22T05:34:36;93743.86;;;1.57;80.33
34065;BME280;20339;49.754;20.158;2023-12-22T05:37:05;93744.58;;;1.58;80.69
34065;BME280;20339;49.754;20.158;2023-12-22T05:39:34;93745.98;;;1.61;80.74
34065;BME280;20339;49.754;20.158;2023-12-22T05:42:05;93745.64;;;1.61;80.65
34065;BME280;20339;49.754;20.158;2023-12-22T05:44:37;93741.91;;;1.71;80.18
34065;BME280;20339;49.754;20.158;2023-12-22T05:47:06;93760.48;;;1.74;80.02
34065;BME280;20339;49.754;20.158;2023-12-22T05:49:36;93768.92;;;1.81;79.57
34065;BME280;20339;49.754;20.158;2023-12-22T05:52:05;93767.60;;;1.92;79.45
34065;BME280;20339;49.754;20.158;2023-12-22T05:54:32;93768.42;;;1.96;79.36
34065;BME280;20339;49.754;20.158;2023-12-22T05:57:07;93760.06;;;1.97;79.34
34065;BME280;20339;49.754;20.158;2023-12-22T05:59:36;93769.00;;;1.94;79.56
34065;BME280;20339;49.754;20.158;2023-12-22T06:02:04;93759.23;;;1.91;79.93
34065;BME280;20339;49.754;20.158;2023-12-22T06:04:33;93780.59;;;1.87;80.30
34065;BME280;20339;49.754;20.158;2023-12-22T06:07:03;93788.55;;;1.81;80.78
34065;BME280;20339;49.754;20.158;2023-12-22T06:09:31;93797.05;;;1.77;81.11
34065;BME280;20339;49.754;20.158;2023-12-22T06:11:59;93806.11;;;1.80;81.55
34065;BME280;20339;49.754;20.158;2023-12-22T06:14:29;93825.39;;;1.83;81.76
34065;BME280;20339;49.754;20.158;2023-12-22T06:16:57;93827.97;;;1.82;81.75
34065;BME280;20339;49.754;20.158;2023-12-22T06:19:26;93837.04;;;1.83;81.93
34065;BME280;20339;49.754;20.158;2023-12-22T06:21:56;93850.77;;;1.87;82.08
34065;BME280;20339;49.754;20.158;2023-12-22T06:24:25;93878.27;;;1.88;82.20
34065;BME280;20339;49.754;20.158;2023-12-22T06:26:54;93945.84;;;1.78;82.63
34065;BME280;20339;49.754;20.158;2023-12-22T06:29:22;93990.66;;;1.54;84.41
34065;BME280;20339;49.754;20.158;2023-12-22T06:31:54;94007.36;;;0.97;86.86
34065;BME280;20339;49.754;20.158;2023-12-22T06:34:26;93971.63;;;0.42;89.67
34065;BME280;20339;49.754;20.158;2023-12-22T06:36:56;93951.18;;;0.16;90.84
34065;BME280;20339;49.754;20.158;2023-12-22T06:39:26;93945.30;;;0.15;90.55
34065;BME280;20339;49.754;20.158;2023-12-22T06:41:55;93957.97;;;0.23;89.61
34065;BME280;20339;49.754;20.158;2023-12-22T06:44:26;93950.84;;;0.32;87.99
34065;BME280;20339;49.754;20.158;2023-12-22T06:46:55;93960.98;;;0.43;86.39
34065;BME280;20339;49.754;20.158;2023-12-22T06:49:23;93962.59;;;0.48;85.90
34065;BME280;20339;49.754;20.158;2023-12-22T06:51:52;93963.69;;;0.51;85.34
34065;BME280;20339;49.754;20.158;2023-12-22T06:54:22;93964.16;;;0.54;84.32
34065;BME280;20339;49.754;20.158;2023-12-22T06:56:50;93957.48;;;0.63;81.54
34065;BME280;20339;49.754;20.158;2023-12-22T06:59:19;93962.23;;;0.76;80.79
34065;BME280;20339;49.754;20.158;2023-12-22T07:01:47;93964.60;;;0.81;79.76
34065;BME280;20339;49.754;20.158;2023-12-22T07:04:16;93970.83;;;0.88;78.90
34065;BME280;20339;49.754;20.158;2023-12-22T07:06:45;93973.27;;;0.95;78.46
34065;BME280;20339;49.754;20.158;2023-12-22T07:09:33;93963.61;;;1.01;77.06
34065;BME280;20339;49.754;20.158;2023-12-22T07:12:02;93969.23;;;1.09;77.39
34065;BME280;20339;49.754;20.158;2023-12-22T07:14:33;93963.06;;;1.09;76.99
34065;BME280;20339;49.754;20.158;2023-12-22T07:17:01;93975.70;;;1.13;76.62
34065;BME280;20339;49.754;20.158;2023-12-22T07:19:30;93973.96;;;1.14;76.52
34065;BME280;20339;49.754;20.158;2023-12-22T07:21:59;93968.97;;;1.19;76.72
34065;BME280;20339;49.754;20.158;2023-12-22T07:24:32;93966.78;;;1.19;76.61
34065;BME280;20339;49.754;20.158;2023-12-22T07:27:00;93969.92;;;1.19;76.00
34065;BME280;20339;49.754;20.158;2023-12-22T07:29:29;93971.17;;;1.22;76.13
34065;BME280;20339;49.754;20.158;2023-12-22T07:31:58;93975.73;;;1.27;76.01
34065;BME280;20339;49.754;20.158;2023-12-22T07:34:26;93978.68;;;1.37;74.94
34065;BME280;20339;49.754;20.158;2023-12-22T07:36:55;93984.34;;;1.48;74.69
34065;BME280;20339;49.754;20.158;2023-12-22T07:39:27;93977.16;;;1.53;74.69
34065;BME280;20339;49.754;20.158;2023-12-22T07:41:55;93972.46;;;1.58;73.87
34065;BME280;20339;49.754;20.158;2023-12-22T07:44:24;93965.92;;;1.70;72.99
34065;BME280;20339;49.754;20.158;2023-12-22T07:47:01;93962.52;;;1.74;71.79
34065;BME280;20339;49.754;20.158;2023-12-22T07:49:30;93963.80;;;1.75;69.82
34065;BME280;20339;49.754;20.158;2023-12-22T07:51:59;93965.81;;;1.83;69.51
34065;BME280;20339;49.754;20.158;2023-12-22T07:54:28;93969.38;;;1.83;69.12
34065;BME280;20339;49.754;20.158;2023-12-22T07:56:57;93975.91;;;1.99;68.93
34065;BME280;20339;49.754;20.158;2023-12-22T07:59:28;93970.05;;;2.20;68.95
34065;BME280;20339;49.754;20.158;2023-12-22T08:01:56;93974.98;;;2.41;68.66
34065;BME280;20339;49.754;20.158;2023-12-22T08:04:25;93974.51;;;2.58;67.71
34065;BME280;20339;49.754;20.158;2023-12-22T08:06:55;93979.91;;;2.60;67.67
34065;BME280;20339;49.754;20.158;2023-12-22T08:09:23;93978.91;;;2.63;67.04
34065;BME280;20339;49.754;20.158;2023-12-22T08:11:52;93983.46;;;2.65;66.49
34065;BME280;20339;49.754;20.158;2023-12-22T08:14:21;93986.61;;;2.67;66.73
34065;BME280;20339;49.754;20.158;2023-12-22T08:17:00;93991.62;;;2.68;66.15
34065;BME280;20339;49.754;20.158;2023-12-22T08:19:28;93999.91;;;2.73;66.41
34065;BME280;20339;49.754;20.158;2023-12-22T08:21:57;93997.23;;;2.75;65.69
34065;BME280;20339;49.754;20.158;2023-12-22T08:24:26;94011.38;;;2.74;65.94
34065;BME280;20339;49.754;20.158;2023-12-22T08:26:54;94018.10;;;2.81;66.14
34065;BME280;20339;49.754;20.158;2023-12-22T08:29:25;94015.31;;;2.89;65.20
34065;BME280;20339;49.754;20.158;2023-12-22T08:31:56;94009.35;;;2.89;64.93
34065;BME280;20339;49.754;20.158;2023-12-22T08:34:24;94004.09;;;2.86;64.16
34065;BME280;20339;49.754;20.158;2023-12-22T08:36:52;93988.51;;;2.82;64.37
34065;BME280;20339;49.754;20.158;2023-12-22T08:39:21;93983.66;;;2.82;64.98
34065;BME280;20339;49.754;20.158;2023-12-22T08:41:54;93996.31;;;2.87;65.77
34065;BME280;20339;49.754;20.158;2023-12-22T08:44:22;93986.88;;;2.90;65.44
34065;BME280;20339;49.754;20.158;2023-12-22T08:46:50;93997.20;;;2.72;65.66
34065;BME280;20339;49.754;20.158;2023-12-22T08:49:18;93992.88;;;2.61;66.31
34065;BME280;20339;49.754;20.158;2023-12-22T08:51:47;93999.30;;;2.61;66.68
34065;BME280;20339;49.754;20.158;2023-12-22T08:54:15;93988.48;;;2.55;66.79
34065;BME280;20339;49.754;20.158;2023-12-22T08:56:43;93984.95;;;2.48;67.05
34065;BME280;20339;49.754;20.158;2023-12-22T08:59:11;93984.88;;;2.47;67.47
34065;BME280;20339;49.754;20.158;2023-12-22T09:01:40;93985.61;;;2.51;68.29
34065;BME280;20339;49.754;20.158;2023-12-22T09:04:11;93978.63;;;2.54;68.31
34065;BME280;20339;49.754;20.158;2023-12-22T09:06:39;93976.07;;;2.53;68.23
34065;BME280;20339;49.754;20.158;2023-12-22T09:09:08;93963.52;;;2.50;68.24
34065;BME280;20339;49.754;20.158;2023-12-22T09:11:37;93967.13;;;2.48;67.89
34065;BME280;20339;49.754;20.158;2023-12-22T09:14:08;93974.38;;;2.44;68.23
34065;BME280;20339;49.754;20.158;2023-12-22T09:16:37;93982.84;;;2.38;68.25
34065;BME280;20339;49.754;20.158;2023-12-22T09:19:08;93973.92;;;2.36;68.11
34065;BME280;20339;49.754;20.158;2023-12-22T09:21:35;93979.77;;;2.34;67.96
34065;BME280;20339;49.754;20.158;2023-12-22T09:24:04;93970.04;;;2.32;68.38
34065;BME280;20339;49.754;20.158;2023-12-22T09:26:35;93964.43;;;2.28;68.59
34065;BME280;20339;49.754;20.158;2023-12-22T09:29:04;93972.55;;;2.21;69.08
34065;BME280;20339;49.754;20.158;2023-12-22T09:31:32;93965.52;;;2.08;69.26
34065;BME280;20339;49.754;20.158;2023-12-22T09:34:01;93973.49;;;1.90;70.85
34065;BME280;20339;49.754;20.158;2023-12-22T09:36:30;94000.43;;;1.68;72.71
34065;BME280;20339;49.754;20.158;2023-12-22T09:38:58;94002.83;;;1.48;74.26
34065;BME280;20339;49.754;20.158;2023-12-22T09:41:27;94020.42;;;1.31;76.16
34065;BME280;20339;49.754;20.158;2023-12-22T09:43:56;94015.42;;;1.18;77.47
34065;BME280;20339;49.754;20.158;2023-12-22T09:46:28;94013.15;;;1.07;79.69
34065;BME280;20339;49.754;20.158;2023-12-22T09:48:57;94034.13;;;0.81;83.92
34065;BME280;20339;49.754;20.158;2023-12-22T09:51:29;94033.55;;;0.55;85.49
34065;BME280;20339;49.754;20.158;2023-12-22T09:53:59;94027.28;;;0.37;87.41
34065;BME280;20339;49.754;20.158;2023-12-22T09:56:30;94008.15;;;0.28;89.04
34065;BME280;20339;49.754;20.158;2023-12-22T09:58:59;93999.34;;;0.27;89.44
34065;BME280;20339;49.754;20.158;2023-12-22T10:01:28;94004.80;;;0.24;90.72
34065;BME280;20339;49.754;20.158;2023-12-22T10:03:56;94008.30;;;0.20;91.06
34065;BME280;20339;49.754;20.158;2023-12-22T10:06:29;94001.85;;;0.23;90.81
34065;BME280;20339;49.754;20.158;2023-12-22T10:08:58;94001.48;;;0.27;90.91
34065;BME280;20339;49.754;20.158;2023-12-22T10:11:28;94004.68;;;0.25;91.44
34065;BME280;20339;49.754;20.158;2023-12-22T10:13:58;93996.52;;;0.24;91.33
34065;BME280;20339;49.754;20.158;2023-12-22T10:16:26;94001.23;;;0.28;91.34
34065;BME280;20339;49.754;20.158;2023-12-22T10:18:56;93995.27;;;0.30;91.61
34065;BME280;20339;49.754;20.158;2023-12-22T10:21:27;93997.86;;;0.32;91.74
34065;BME280;20339;49.754;20.158;2023-12-22T10:23:58;93997.83;;;0.30;91.90
34065;BME280;20339;49.754;20.158;2023-12-22T10:26:27;93988.17;;;0.25;92.61
34065;BME280;20339;49.754;20.158;2023-12-22T10:28:55;93986.13;;;0.25;92.75
34065;BME280;20339;49.754;20.158;2023-12-22T10:31:24;93984.00;;;0.35;92.92
34065;BME280;20339;49.754;20.158;2023-12-22T10:33:54;93992.88;;;0.43;93.48
34065;BME280;20339;49.754;20.158;2023-12-22T10:36:23;93992.74;;;0.46;93.08
34065;BME280;20339;49.754;20.158;2023-12-22T10:38:51;93995.27;;;0.44;92.83
34065;BME280;20339;49.754;20.158;2023-12-22T10:41:22;93997.16;;;0.41;93.64
34065;BME280;20339;49.754;20.158;2023-12-22T10:43:51;94004.19;;;0.43;92.91
34065;BME280;20339;49.754;20.158;2023-12-22T10:46:19;94001.64;;;0.43;92.96
34065;BME280;20339;49.754;20.158;2023-12-22T10:48:48;93996.95;;;0.43;93.41
34065;BME280;20339;49.754;20.158;2023-12-22T10:51:23;93998.63;;;0.46;93.38
34065;BME280;20339;49.754;20.158;2023-12-22T10:53:52;94004.40;;;0.47;93.35
34065;BME280;20339;49.754;20.158;2023-12-22T10:56:25;93997.06;;;0.50;93.59
34065;BME280;20339;49.754;20.158;2023-12-22T10:58:55;93987.91;;;0.53;94.17
34065;BME280;20339;49.754;20.158;2023-12-22T11:01:23;93985.95;;;0.55;94.13
34065;BME280;20339;49.754;20.158;2023-12-22T11:03:53;93983.48;;;0.57;94.27
34065;BME280;20339;49.754;20.158;2023-12-22T11:06:26;93975.36;;;0.65;94.29
34065;BME280;20339;49.754;20.158;2023-12-22T11:08:57;93968.61;;;0.72;93.61
34065;BME280;20339;49.754;20.158;2023-12-22T11:11:31;93961.73;;;0.74;93.85
34065;BME280;20339;49.754;20.158;2023-12-22T11:14:02;93958.15;;;0.80;93.38
34065;BME280;20339;49.754;20.158;2023-12-22T11:16:34;93957.06;;;0.84;93.27
34065;BME280;20339;49.754;20.158;2023-12-22T11:19:03;93952.23;;;0.87;92.91
34065;BME280;20339;49.754;20.158;2023-12-22T11:21:36;93935.65;;;0.93;92.80
34065;BME280;20339;49.754;20.158;2023-12-22T11:24:06;93920.75;;;0.99;92.48
34065;BME280;20339;49.754;20.158;2023-12-22T11:26:35;93917.73;;;1.02;92.57
34065;BME280;20339;49.754;20.158;2023-12-22T11:29:04;93929.92;;;1.06;92.18
34065;BME280;20339;49.754;20.158;2023-12-22T11:31:33;93920.41;;;1.11;92.25
34065;BME280;20339;49.754;20.158;2023-12-22T11:34:04;93918.18;;;1.24;92.04
34065;BME280;20339;49.754;20.158;2023-12-22T11:36:33;93917.38;;;1.38;91.78
34065;BME280;20339;49.754;20.158;2023-12-22T11:39:02;93915.05;;;1.47;91.28
34065;BME280;20339;49.754;20.158;2023-12-22T11:41:35;93908.36;;;1.47;90.51
34065;BME280;20339;49.754;20.158;2023-12-22T11:44:06;93899.87;;;1.39;89.84
34065;BME280;20339;49.754;20.158;2023-12-22T11:46:34;93888.67;;;1.37;89.95
34065;BME280;20339;49.754;20.158;2023-12-22T11:49:03;93880.70;;;1.38;89.92
34065;BME280;20339;49.754;20.158;2023-12-22T11:51:35;93867.54;;;1.40;89.59
34065;BME280;20339;49.754;20.158;2023-12-22T11:54:03;93870.23;;;1.44;89.53
34065;BME280;20339;49.754;20.158;2023-12-22T11:56:31;93877.84;;;1.51;89.19
34065;BME280;20339;49.754;20.158;2023-12-22T11:59:02;93876.02;;;1.55;88.93
34065;BME280;20339;49.754;20.158;2023-12-22T12:01:38;93871.63;;;1.53;88.52
34065;BME280;20339;49.754;20.158;2023-12-22T12:04:07;93865.27;;;1.47;88.14
34065;BME280;20339;49.754;20.158;2023-12-22T12:06:36;93862.09;;;1.45;87.58
34065;BME280;20339;49.754;20.158;2023-12-22T12:09:06;93859.32;;;1.50;87.42
34065;BME280;20339;49.754;20.158;2023-12-22T12:14:47;93858.25;;;1.55;86.02
34065;BME280;20339;49.754;20.158;2023-12-22T12:17:19;93869.62;;;1.44;86.06
34065;BME280;20339;49.754;20.158;2023-12-22T12:19:48;93888.30;;;1.29;87.18
34065;BME280;20339;49.754;20.158;2023-12-22T12:22:17;93888.52;;;1.14;88.21
34065;BME280;20339;49.754;20.158;2023-12-22T12:24:46;93892.95;;;0.95;89.68
34065;BME280;20339;49.754;20.158;2023-12-22T12:27:18;93901.13;;;0.81;90.78
34065;BME280;20339;49.754;20.158;2023-12-22T12:29:47;93916.74;;;0.77;90.99
34065;BME280;20339;49.754;20.158;2023-12-22T12:32:15;93921.05;;;0.78;91.84
34065;BME280;20339;49.754;20.158;2023-12-22T12:34:44;93916.70;;;0.82;92.18
34065;BME280;20339;49.754;20.158;2023-12-22T12:37:14;93927.58;;;0.85;91.97
34065;BME280;20339;49.754;20.158;2023-12-22T12:39:43;93927.52;;;0.86;91.64
34065;BME280;20339;49.754;20.158;2023-12-22T12:42:16;93934.13;;;0.87;91.63
34065;BME280;20339;49.754;20.158;2023-12-22T12:44:46;93936.63;;;0.88;91.69
34065;BME280;20339;49.754;20.158;2023-12-22T12:47:18;93936.63;;;0.91;91.87
34065;BME280;20339;49.754;20.158;2023-12-22T12:49:52;93947.90;;;0.97;91.73
34065;BME280;20339;49.754;20.158;2023-12-22T12:52:24;93940.32;;;1.02;91.49
34065;BME280;20339;49.754;20.158;2023-12-22T12:54:54;93931.73;;;1.07;91.05
34065;BME280;20339;49.754;20.158;2023-12-22T12:57:24;93928.48;;;1.13;90.86
34065;BME280;20339;49.754;20.158;2023-12-22T12:59:54;93912.90;;;1.21;89.39
34065;BME280;20339;49.754;20.158;2023-12-22T13:02:23;93903.60;;;1.21;88.93
34065;BME280;20339;49.754;20.158;2023-12-22T13:04:51;93898.20;;;1.16;88.76
34065;BME280;20339;49.754;20.158;2023-12-22T13:07:25;93894.35;;;1.16;87.59
34065;BME280;20339;49.754;20.158;2023-12-22T13:09:54;93896.41;;;1.15;87.13
34065;BME280;20339;49.754;20.158;2023-12-22T13:12:25;93886.94;;;1.13;87.48
34065;BME280;20339;49.754;20.158;2023-12-22T13:14:54;93891.00;;;1.12;87.03